Terminal Aerodrome Forecast
Issued by NWS

Home | Current Version | Previous Version | Text Only | Print | Product List | Glossary On
Versions: 1 2 3 4 5 6 7 8 9 10 11 12 13 14 15 16 17 18 19 20 21 22 23 24
000
FTUS42 KFFC 212339
TAFRYY
TAF
KRYY 212339Z 2200/2224 VRB04KT P6SM BKN016 OVC120
     FM220200 20005KT 6SM BR BKN012 OVC015
     FM220700 15005KT 3SM BR VCSH OVC005
     FM220900 16010KT 2SM TSRA OVC007CB
     FM221500 22008KT 4SM BR VCSH OVC005 PROB30 2219/2223 3SM TSRA
      BKN020CB
      AMD NOT SKED 2204/2212=

USA.gov is the U.S. government's official web portal to all federal, state and local government web resources and services.